Time;durP1;ratioP1;P1;durP2;ratioP2;P2;SDS_P1;SDS_P2;PMS_P1;PMS_P2;Temp;Humidity;BMP_temperature;BMP_pressure;BME280_temperature;BME280_humidity;BME280_pressure;Samples;Min_cycle;Max_cycle;Signal;HPM_P1;HPM_P2
2023/10/04 04:07:42;;;;;;;0.32;0.32;;;10.50;99.90;;;;;;5032118;28;20226;-60
2023/10/04 04:10:16;;;;;;;0.30;0.30;;;10.50;99.90;;;;;;5034125;28;20193;-63
2023/10/04 04:12:42;;;;;;;0.40;0.40;;;10.50;99.90;;;;;;5034199;28;20188;-62
2023/10/04 04:15:09;;;;;;;0.32;0.32;;;10.50;99.90;;;;;;5039066;28;20189;-62
2023/10/04 04:17:39;;;;;;;0.30;0.30;;;10.50;99.90;;;;;;5053949;28;20177;-62
2023/10/04 04:20:16;;;;;;;0.30;0.30;;;10.60;99.90;;;;;;5053676;28;20173;-62
2023/10/04 04:22:50;;;;;;;0.30;0.30;;;10.60;99.90;;;;;;5035659;28;20264;-62
2023/10/04 04:25:20;;;;;;;0.30;0.30;;;10.70;99.90;;;;;;5050534;28;20186;-62
2023/10/04 04:27:51;;;;;;;0.30;0.20;;;10.60;99.90;;;;;;5052247;28;20201;-61
2023/10/04 04:30:23;;;;;;;0.40;0.40;;;10.70;99.90;;;;;;5035309;28;20174;-63
2023/10/04 04:32:56;;;;;;;0.30;0.20;;;10.70;99.90;;;;;;5052890;28;20171;-62
2023/10/04 04:38:19;;;;;;;0.30;0.30;;;10.60;99.90;;;;;;5053247;28;20208;-63
2023/10/04 04:40:48;;;;;;;0.40;0.40;;;10.60;99.90;;;;;;5053458;28;20364;-62
2023/10/04 04:45:52;;;;;;;0.30;0.30;;;10.50;99.90;;;;;;5052657;28;20242;-61
2023/10/04 04:48:29;;;;;;;0.30;0.30;;;10.50;99.90;;;;;;5053369;28;20173;-61
2023/10/04 04:50:57;;;;;;;0.30;0.30;;;10.50;99.90;;;;;;5053547;28;20170;-61
2023/10/04 04:53:27;;;;;;;0.30;0.20;;;10.50;99.90;;;;;;5053443;28;20224;-62
2023/10/04 04:55:53;;;;;;;0.65;0.65;;;10.40;99.90;;;;;;5052858;28;20189;-62
2023/10/04 04:58:19;;;;;;;0.30;0.30;;;10.40;99.90;;;;;;5052826;28;20256;-61
2023/10/04 05:00:49;;;;;;;0.30;0.30;;;10.40;99.90;;;;;;5052877;28;20259;-61
2023/10/04 05:03:18;;;;;;;0.30;0.30;;;10.40;99.90;;;;;;5052994;28;20805;-63
2023/10/04 05:05:44;;;;;;;0.30;0.30;;;10.30;99.90;;;;;;5052309;28;20728;-63
2023/10/04 05:08:10;;;;;;;0.30;0.30;;;10.20;99.90;;;;;;5053164;28;20276;-61
2023/10/04 05:10:40;;;;;;;0.30;0.30;;;10.20;99.90;;;;;;5053111;28;20591;-62
2023/10/04 05:13:12;;;;;;;0.30;0.30;;;10.10;99.90;;;;;;5053216;28;20235;-63
2023/10/04 05:15:39;;;;;;;0.30;0.30;;;10.10;99.90;;;;;;5053581;28;20197;-62
2023/10/04 05:18:05;;;;;;;0.30;0.30;;;10.10;99.90;;;;;;5057270;28;20169;-63
2023/10/04 05:20:32;;;;;;;0.45;0.45;;;10.10;99.90;;;;;;5056940;28;20169;-62
2023/10/04 05:23:01;;;;;;;0.30;0.30;;;10.10;99.90;;;;;;5057040;28;20188;-63
2023/10/04 05:25:27;;;;;;;0.30;0.20;;;10.00;99.90;;;;;;5056576;28;20243;-62
2023/10/04 05:28:02;;;;;;;0.30;0.20;;;10.00;99.90;;;;;;5056729;28;20200;-62
2023/10/04 05:30:27;;;;;;;0.30;0.30;;;10.00;99.90;;;;;;5056527;28;20168;-63
2023/10/04 05:32:53;;;;;;;0.30;0.30;;;10.00;99.90;;;;;;5056871;28;20177;-62
2023/10/04 05:35:21;;;;;;;0.30;0.30;;;10.00;99.90;;;;;;5056469;28;20193;-61
2023/10/04 05:37:47;;;;;;;0.30;0.20;;;10.10;99.90;;;;;;5056693;28;20264;-64
2023/10/04 05:40:27;;;;;;;0.30;0.30;;;10.10;99.90;;;;;;5056731;28;20724;-62
2023/10/04 05:42:56;;;;;;;0.30;0.30;;;10.10;99.90;;;;;;5056349;28;20173;-62
2023/10/04 05:45:23;;;;;;;0.30;0.30;;;10.10;99.90;;;;;;5055899;28;20561;-62
2023/10/04 05:47:52;;;;;;;0.30;0.30;;;10.10;99.90;;;;;;5056416;28;20201;-62
2023/10/04 05:50:21;;;;;;;0.40;0.40;;;10.10;99.90;;;;;;5056254;28;20192;-62
2023/10/04 05:52:50;;;;;;;0.30;0.30;;;10.10;99.90;;;;;;5056411;28;20317;-62
2023/10/04 05:55:20;;;;;;;0.30;0.30;;;10.20;99.90;;;;;;5055854;28;20193;-61
2023/10/04 05:57:47;;;;;;;0.30;0.30;;;10.20;99.90;;;;;;5056324;28;20173;-61
2023/10/04 06:00:28;;;;;;;0.30;0.30;;;10.20;99.90;;;;;;5056365;28;20166;-63
2023/10/04 06:03:06;;;;;;;0.30;0.30;;;10.30;99.90;;;;;;5056318;28;20189;-63
2023/10/04 06:05:35;;;;;;;0.30;0.30;;;10.40;99.90;;;;;;5055421;28;20197;-64
2023/10/04 06:08:11;;;;;;;0.30;0.30;;;10.50;99.90;;;;;;5055987;28;20667;-63
2023/10/04 06:10:37;;;;;;;0.30;0.30;;;10.60;99.90;;;;;;5055700;28;20503;-65
2023/10/04 06:13:03;;;;;;;0.30;0.30;;;10.70;99.90;;;;;;5055396;28;20265;-63
2023/10/04 06:15:32;;;;;;;0.30;0.30;;;10.90;99.90;;;;;;5055686;28;20203;-63
2023/10/04 06:17:59;;;;;;;0.35;0.35;;;11.00;99.90;;;;;;5056143;28;20624;-65
2023/10/04 06:22:59;;;;;;;0.30;0.30;;;11.40;99.90;;;;;;5055992;28;20632;-65
2023/10/04 06:25:29;;;;;;;0.30;0.30;;;11.50;99.90;;;;;;5061518;28;20466;-64
2023/10/04 06:27:59;;;;;;;0.30;0.30;;;11.50;99.90;;;;;;5059452;28;20195;-62
2023/10/04 06:30:31;;;;;;;0.30;0.30;;;11.50;99.90;;;;;;5055617;28;20652;-65
2023/10/04 06:32:59;;;;;;;0.30;0.30;;;11.70;99.90;;;;;;5054917;28;20881;-62
2023/10/04 06:35:25;;;;;;;0.40;0.40;;;11.90;99.90;;;;;;5054973;28;20441;-63
2023/10/04 06:37:52;;;;;;;0.30;0.30;;;12.00;99.90;;;;;;5055212;28;20978;-64
2023/10/04 06:40:19;;;;;;;0.30;0.30;;;12.10;99.90;;;;;;5054745;28;20388;-64
2023/10/04 06:42:46;;;;;;;0.30;0.30;;;12.20;99.90;;;;;;5055161;28;20407;-65
2023/10/04 06:45:19;;;;;;;0.40;0.40;;;12.30;99.90;;;;;;5054755;28;20442;-65
2023/10/04 06:47:47;;;;;;;0.30;0.30;;;12.40;99.90;;;;;;5055464;28;20550;-64
2023/10/04 06:50:18;;;;;;;0.30;0.30;;;12.40;99.90;;;;;;5055462;28;20411;-63
2023/10/04 06:52:49;;;;;;;0.30;0.20;;;12.60;99.90;;;;;;5035952;28;20478;-66
2023/10/04 06:55:16;;;;;;;0.40;0.40;;;12.80;99.90;;;;;;5034719;28;20431;-63
2023/10/04 06:57:43;;;;;;;0.50;0.50;;;12.90;99.90;;;;;;5035524;28;20416;-64
2023/10/04 07:00:18;;;;;;;0.30;0.30;;;13.00;99.90;;;;;;5035210;28;20393;-65
2023/10/04 07:02:51;;;;;;;0.30;0.20;;;13.10;99.90;;;;;;5035286;28;20391;-64
2023/10/04 07:05:19;;;;;;;0.30;0.30;;;13.30;99.90;;;;;;5025969;28;20447;-64
2023/10/04 07:07:46;;;;;;;0.30;0.20;;;13.70;99.90;;;;;;5054630;28;20463;-63
2023/10/04 07:10:16;;;;;;;0.30;0.30;;;14.50;99.90;;;;;;5054358;28;20395;-63
2023/10/04 07:12:45;;;;;;;0.50;0.50;;;15.40;99.90;;;;;;5055001;28;20523;-64
2023/10/04 07:15:15;;;;;;;0.50;0.50;;;16.40;99.90;;;;;;5054703;28;20410;-66
2023/10/04 07:17:42;;;;;;;0.30;0.30;;;17.40;99.90;;;;;;5054823;28;20427;-64
2023/10/04 07:20:15;;;;;;;0.40;0.40;;;18.10;99.90;;;;;;5055211;28;20418;-63
2023/10/04 07:22:45;;;;;;;0.40;0.40;;;18.80;99.90;;;;;;5054538;28;20519;-63
2023/10/04 07:25:15;;;;;;;0.30;0.30;;;19.40;99.90;;;;;;5054052;28;20507;-65
2023/10/04 07:27:43;;;;;;;0.30;0.30;;;20.10;99.90;;;;;;5054915;28;20455;-64
2023/10/04 07:30:12;;;;;;;0.30;0.20;;;20.90;99.90;;;;;;5054487;28;20903;-63
2023/10/04 07:32:45;;;;;;;0.30;0.20;;;21.90;99.90;;;;;;5054602;28;20434;-63
2023/10/04 07:35:18;;;;;;;0.30;0.30;;;22.70;98.90;;;;;;5053970;28;20439;-65
2023/10/04 07:37:45;;;;;;;0.30;0.30;;;23.30;96.60;;;;;;5054413;28;20471;-64
2023/10/04 07:40:13;;;;;;;0.40;0.30;;;23.80;95.10;;;;;;5053468;28;20503;-65
2023/10/04 07:42:41;;;;;;;0.40;0.40;;;24.40;94.70;;;;;;5054191;28;20435;-65
2023/10/04 07:45:07;;;;;;;0.30;0.30;;;24.90;93.80;;;;;;5053873;28;20455;-62
2023/10/04 07:47:43;;;;;;;0.37;0.37;;;25.60;91.90;;;;;;5054301;28;20476;-62
2023/10/04 07:50:10;;;;;;;0.30;0.30;;;26.10;90.40;;;;;;5054102;28;20897;-61
2023/10/04 07:52:40;;;;;;;0.30;0.30;;;26.40;87.90;;;;;;5054355;28;20771;-62
2023/10/04 07:55:12;;;;;;;0.50;0.50;;;26.50;87.10;;;;;;5053887;28;20432;-63
2023/10/04 07:57:42;;;;;;;0.60;0.60;;;26.50;87.30;;;;;;5053748;28;20406;-63
2023/10/04 08:00:12;;;;;;;0.50;0.43;;;26.70;86.60;;;;;;5054210;28;20407;-65
2023/10/04 08:02:45;;;;;;;0.30;0.30;;;26.80;85.70;;;;;;5054074;28;20871;-62
2023/10/04 08:05:21;;;;;;;0.40;0.40;;;27.00;85.00;;;;;;5053800;28;20828;-64
2023/10/04 08:07:48;;;;;;;0.30;0.30;;;27.20;85.80;;;;;;5053967;28;20471;-61
2023/10/04 08:10:14;;;;;;;0.30;0.30;;;27.60;82.80;;;;;;5054018;28;20403;-62
2023/10/04 08:12:42;;;;;;;2.93;0.40;;;27.80;81.00;;;;;;5053344;28;20452;-62
2023/10/04 08:15:09;;;;;;;0.30;0.20;;;28.00;79.30;;;;;;5053587;28;20996;-61
2023/10/04 08:17:34;;;;;;;0.30;0.20;;;28.00;78.70;;;;;;5053951;28;20420;-62
2023/10/04 08:20:00;;;;;;;0.70;0.70;;;27.80;78.00;;;;;;5053921;28;20424;-62
2023/10/04 08:22:27;;;;;;;0.30;0.30;;;27.80;77.60;;;;;;5053979;28;20177;-61
2023/10/04 08:24:53;;;;;;;0.40;0.30;;;27.70;78.70;;;;;;5053148;28;20207;-62
2023/10/04 08:27:19;;;;;;;0.40;0.30;;;27.80;78.70;;;;;;5052970;28;20463;-61
2023/10/04 08:29:45;;;;;;;0.30;0.20;;;28.00;78.60;;;;;;5053298;28;20498;-62
2023/10/04 08:32:10;;;;;;;0.33;0.33;;;28.30;77.70;;;;;;5053379;28;20180;-61
2023/10/04 08:34:37;;;;;;;0.50;0.50;;;28.70;77.80;;;;;;5053190;28;20639;-64
2023/10/04 08:37:02;;;;;;;0.40;0.40;;;28.90;76.90;;;;;;5035354;28;20536;-62
2023/10/04 08:39:29;;;;;;;0.73;0.70;;;29.20;76.10;;;;;;5053310;28;20473;-62
2023/10/04 08:41:55;;;;;;;0.40;0.40;;;29.50;76.00;;;;;;5053528;28;20474;-64
2023/10/04 08:44:21;;;;;;;0.30;0.30;;;29.80;74.60;;;;;;5052902;28;20404;-64
2023/10/04 08:46:47;;;;;;;0.40;0.30;;;30.00;73.20;;;;;;5053554;28;20524;-64
2023/10/04 08:49:15;;;;;;;0.40;0.40;;;30.20;72.50;;;;;;5052984;28;20412;-62
2023/10/04 08:51:50;;;;;;;0.30;0.30;;;30.20;71.10;;;;;;5052755;28;20186;-62
2023/10/04 08:54:21;;;;;;;0.60;0.60;;;30.40;71.20;;;;;;5053009;28;20408;-62
2023/10/04 08:57:14;;;;;;;0.30;0.30;;;30.30;68.90;;;;;;5053090;28;20435;-63
2023/10/04 08:59:41;;;;;;;0.37;0.37;;;30.40;69.50;;;;;;5053012;28;20853;-63
2023/10/04 09:02:13;;;;;;;0.53;0.53;;;30.40;69.50;;;;;;5053098;28;20420;-65
2023/10/04 09:04:40;;;;;;;0.30;0.30;;;30.60;68.20;;;;;;5052199;28;20446;-63
2023/10/04 09:07:08;;;;;;;0.30;0.30;;;30.60;65.70;;;;;;5052164;28;21168;-65
2023/10/04 09:09:38;;;;;;;0.30;0.30;;;30.50;66.20;;;;;;5053307;28;20413;-66
2023/10/04 09:12:06;;;;;;;0.30;0.30;;;30.60;67.20;;;;;;5053092;28;20407;-65
2023/10/04 09:14:32;;;;;;;0.40;0.40;;;30.80;66.90;;;;;;5052634;28;20412;-66
2023/10/04 09:17:12;;;;;;;0.30;0.30;;;31.10;65.70;;;;;;5052723;28;20490;-65
2023/10/04 09:19:38;;;;;;;0.30;0.30;;;31.10;63.80;;;;;;5052493;28;20437;-64
2023/10/04 09:22:05;;;;;;;0.30;0.30;;;30.90;65.00;;;;;;5052977;28;20898;-64
2023/10/04 09:24:32;;;;;;;0.30;0.30;;;30.90;64.50;;;;;;5052539;28;20177;-65
2023/10/04 09:26:57;;;;;;;0.50;0.50;;;30.90;64.70;;;;;;5052740;28;20455;-66
2023/10/04 09:29:32;;;;;;;0.30;0.30;;;30.90;64.50;;;;;;5052666;28;20401;-65
2023/10/04 09:31:58;;;;;;;0.40;0.40;;;30.90;65.60;;;;;;5053044;28;20173;-67
2023/10/04 09:34:23;;;;;;;0.30;0.30;;;31.00;64.70;;;;;;5052143;28;20983;-66
2023/10/04 09:36:52;;;;;;;0.30;0.30;;;30.90;63.40;;;;;;5052873;28;20416;-65
2023/10/04 09:39:23;;;;;;;0.50;0.50;;;30.70;63.80;;;;;;5052781;28;20706;-64
2023/10/04 09:41:50;;;;;;;0.30;0.30;;;30.60;63.70;;;;;;5052763;28;20864;-65
2023/10/04 09:44:27;;;;;;;0.30;0.30;;;30.60;61.90;;;;;;5052345;28;20421;-67
2023/10/04 09:46:54;;;;;;;0.40;0.40;;;30.30;61.50;;;;;;5052737;28;20455;-66
2023/10/04 09:49:26;;;;;;;0.30;0.30;;;30.00;62.60;;;;;;5034527;28;20511;-66
2023/10/04 09:51:55;;;;;;;0.30;0.30;;;29.90;64.50;;;;;;5052724;28;20414;-65
2023/10/04 09:54:22;;;;;;;0.30;0.30;;;30.20;63.90;;;;;;5052630;28;20396;-64
2023/10/04 09:56:51;;;;;;;0.60;0.60;;;30.30;64.40;;;;;;5051409;28;20448;-65
2023/10/04 09:59:19;;;;;;;0.30;0.30;;;30.20;63.50;;;;;;5052646;28;20498;-67
2023/10/04 10:01:59;;;;;;;0.30;0.30;;;29.70;63.70;;;;;;5052446;28;20845;-63
2023/10/04 10:04:29;;;;;;;0.40;0.30;;;29.30;66.00;;;;;;5055824;28;20789;-64
2023/10/04 10:06:57;;;;;;;0.40;0.40;;;29.00;65.20;;;;;;5056101;28;20497;-63
2023/10/04 10:09:25;;;;;;;0.40;0.40;;;29.00;65.10;;;;;;5056390;28;20885;-63
2023/10/04 10:11:52;;;;;;;0.30;0.30;;;29.10;66.10;;;;;;5056449;28;20431;-62
2023/10/04 10:14:20;;;;;;;0.40;0.37;;;28.60;65.60;;;;;;5055982;28;20416;-62
2023/10/04 10:16:46;;;;;;;0.30;0.30;;;28.50;67.10;;;;;;5056047;28;20435;-63
2023/10/04 10:19:12;;;;;;;0.40;0.40;;;28.60;66.60;;;;;;5055682;28;20424;-64
2023/10/04 10:22:03;;;;;;;0.30;0.30;;;28.50;66.80;;;;;;5056171;28;20420;-63
2023/10/04 10:24:28;;;;;;;0.30;0.23;;;28.20;66.90;;;;;;5054536;28;20400;-64
2023/10/04 10:27:07;;;;;;;0.30;0.27;;;27.50;67.90;;;;;;5054090;28;20959;-63
2023/10/04 10:29:33;;;;;;;0.30;0.30;;;26.70;70.00;;;;;;5054014;28;20769;-62
2023/10/04 10:32:01;;;;;;;0.30;0.20;;;25.90;72.90;;;;;;5053759;28;20458;-63
2023/10/04 10:34:27;;;;;;;0.30;0.30;;;25.30;73.00;;;;;;5053450;28;20174;-63
2023/10/04 10:37:09;;;;;;;0.30;0.30;;;24.90;73.30;;;;;;5053612;28;20420;-64
2023/10/04 10:39:44;;;;;;;0.30;0.30;;;24.40;73.70;;;;;;5055178;28;20394;-63
2023/10/04 10:42:11;;;;;;;0.30;0.30;;;23.80;75.50;;;;;;5037982;28;20793;-62
2023/10/04 10:44:39;;;;;;;0.30;0.20;;;23.60;78.70;;;;;;5055330;28;20856;-63
2023/10/04 10:47:21;;;;;;;0.30;0.20;;;23.50;79.80;;;;;;5055599;28;20847;-63
2023/10/04 10:49:52;;;;;;;0.30;0.30;;;23.20;79.60;;;;;;5055314;28;20415;-62
2023/10/04 10:52:38;;;;;;;0.57;0.47;;;23.00;80.50;;;;;;5055760;28;20462;-62
2023/10/04 10:55:06;;;;;;;0.30;0.30;;;22.50;82.10;;;;;;5055156;28;20757;-62
2023/10/04 10:57:36;;;;;;;0.30;0.20;;;22.10;84.40;;;;;;5055177;28;20379;-62
2023/10/04 11:00:40;;;;;;;0.63;0.40;;;21.80;85.40;;;;;;5055029;28;20406;-62
2023/10/04 11:02:59;;;;;;;0.30;0.30;;;21.30;85.10;;;;;;5051507;28;20391;-62
2023/10/04 11:05:26;;;;;;;0.30;0.20;;;20.90;84.90;;;;;;5054663;28;20438;-62
2023/10/04 11:07:54;;;;;;;0.30;0.20;;;20.70;84.50;;;;;;5054772;28;20806;-63
2023/10/04 11:10:23;;;;;;;0.30;0.30;;;20.40;87.80;;;;;;5055112;28;20494;-62
2023/10/04 11:12:51;;;;;;;1.17;1.17;;;20.10;87.50;;;;;;5054653;28;20393;-62
2023/10/04 11:15:20;;;;;;;0.30;0.30;;;19.90;90.60;;;;;;5036535;28;20774;-63
2023/10/04 11:17:47;;;;;;;0.30;0.30;;;19.90;88.60;;;;;;5054830;28;20528;-62
2023/10/04 11:20:17;;;;;;;0.30;0.30;;;20.00;90.10;;;;;;5054836;28;20860;-62
2023/10/04 11:22:45;;;;;;;0.30;0.30;;;20.00;91.10;;;;;;5054743;28;20886;-62
2023/10/04 11:25:13;;;;;;;0.30;0.20;;;20.20;90.60;;;;;;5054229;28;20971;-62
2023/10/04 11:27:42;;;;;;;0.30;0.30;;;20.30;90.10;;;;;;5054958;28;20470;-62
2023/10/04 11:30:10;;;;;;;0.30;0.30;;;20.40;90.60;;;;;;5054797;28;20380;-62
2023/10/04 11:32:40;;;;;;;0.60;0.50;;;20.40;90.20;;;;;;5054898;28;20804;-64
2023/10/04 11:35:08;;;;;;;0.30;0.30;;;20.40;89.50;;;;;;5054030;28;20993;-62
2023/10/04 11:37:44;;;;;;;0.30;0.20;;;20.20;86.80;;;;;;5054529;28;20515;-61
2023/10/04 11:40:12;;;;;;;0.30;0.20;;;20.20;87.60;;;;;;5054227;28;20391;-62
2023/10/04 11:42:38;;;;;;;0.40;0.40;;;20.10;85.40;;;;;;5050648;28;20386;-62
2023/10/04 11:45:23;;;;;;;0.30;0.30;;;20.10;85.60;;;;;;5051513;28;20430;-62
2023/10/04 11:48:07;;;;;;;0.30;0.30;;;20.00;86.80;;;;;;5052867;28;20470;-63
2023/10/04 11:50:56;;;;;;;0.30;0.23;;;20.00;89.60;;;;;;5054021;28;20450;-62
2023/10/04 11:53:38;;;;;;;0.30;0.30;;;20.00;90.40;;;;;;5054200;28;20462;-62
2023/10/04 11:56:07;;;;;;;0.30;0.30;;;19.90;90.60;;;;;;5054223;28;20436;-62
2023/10/04 11:58:43;;;;;;;0.30;0.23;;;20.00;90.50;;;;;;5054038;28;20432;-62
2023/10/04 12:01:11;;;;;;;0.40;0.30;;;20.10;90.00;;;;;;5054454;28;20412;-62
2023/10/04 12:03:37;;;;;;;0.30;0.30;;;20.10;90.20;;;;;;5054082;28;20760;-61
2023/10/04 12:06:03;;;;;;;0.30;0.20;;;20.10;89.20;;;;;;5053427;28;20426;-61
2023/10/04 12:08:30;;;;;;;0.30;0.20;;;20.10;90.30;;;;;;5036215;28;20177;-61
2023/10/04 12:10:55;;;;;;;0.30;0.30;;;20.00;89.50;;;;;;5054200;28;20448;-61
2023/10/04 12:13:23;;;;;;;0.30;0.20;;;20.00;89.10;;;;;;5053815;28;20420;-61
2023/10/04 12:15:48;;;;;;;0.30;0.30;;;19.90;88.40;;;;;;5053335;28;20204;-60
2023/10/04 12:18:15;;;;;;;0.30;0.30;;;19.90;88.60;;;;;;5053720;28;20420;-62
2023/10/04 12:20:42;;;;;;;0.30;0.30;;;20.00;87.80;;;;;;5053835;28;20181;-62
2023/10/04 12:23:10;;;;;;;0.30;0.30;;;20.00;83.70;;;;;;5054219;28;20428;-61
2023/10/04 12:25:43;;;;;;;0.30;0.30;;;20.00;86.30;;;;;;5052887;28;20443;-62
2023/10/04 12:28:09;;;;;;;0.30;0.30;;;20.00;86.10;;;;;;5053530;28;20434;-61
2023/10/04 12:30:35;;;;;;;0.30;0.20;;;20.00;86.40;;;;;;5053550;28;20420;-61
2023/10/04 12:33:02;;;;;;;0.30;0.30;;;19.90;86.90;;;;;;5053226;28;20459;-60
2023/10/04 12:35:28;;;;;;;0.30;0.20;;;19.90;86.20;;;;;;5052936;28;20497;-62
2023/10/04 12:37:53;;;;;;;0.30;0.20;;;19.90;84.50;;;;;;5053528;28;20506;-61
2023/10/04 12:40:25;;;;;;;0.40;0.20;;;19.90;83.70;;;;;;5053052;28;20424;-61
2023/10/04 12:42:52;;;;;;;0.30;0.20;;;19.90;80.20;;;;;;5036549;28;20549;-62
2023/10/04 12:45:21;;;;;;;0.30;0.20;;;19.80;82.70;;;;;;5053200;28;20773;-61
2023/10/04 12:47:47;;;;;;;0.30;0.30;;;19.80;84.00;;;;;;5053346;28;20429;-61
2023/10/04 12:50:16;;;;;;;0.30;0.20;;;19.80;82.20;;;;;;5051978;28;20782;-62
2023/10/04 12:52:43;;;;;;;0.50;0.50;;;19.80;82.00;;;;;;5051292;28;20379;-62
2023/10/04 12:55:11;;;;;;;0.40;0.40;;;19.70;83.50;;;;;;5050679;28;20776;-62
2023/10/04 12:57:40;;;;;;;0.30;0.30;;;19.80;84.00;;;;;;5051252;28;20415;-63
2023/10/04 13:00:13;;;;;;;0.30;0.20;;;19.80;83.90;;;;;;5051186;28;20382;-64
2023/10/04 13:02:40;;;;;;;0.40;0.40;;;19.70;84.80;;;;;;5051600;28;20375;-63
2023/10/04 13:05:07;;;;;;;0.30;0.30;;;19.70;83.80;;;;;;5052167;28;20904;-62
2023/10/04 13:07:33;;;;;;;0.30;0.20;;;19.70;83.90;;;;;;5052960;28;20809;-62
2023/10/04 13:09:59;;;;;;;0.30;0.30;;;19.60;83.90;;;;;;5052639;28;20416;-61
2023/10/04 13:12:25;;;;;;;0.50;0.50;;;19.60;82.00;;;;;;5053346;28;20180;-62
2023/10/04 13:14:52;;;;;;;0.30;0.30;;;19.50;82.60;;;;;;5052678;28;20426;-62
2023/10/04 13:17:18;;;;;;;0.30;0.30;;;19.40;82.20;;;;;;5053115;28;20407;-61
2023/10/04 13:19:45;;;;;;;0.30;0.30;;;19.30;81.60;;;;;;5053259;28;20416;-61
2023/10/04 13:22:12;;;;;;;0.30;0.30;;;19.20;81.20;;;;;;5053203;28;20774;-60
2023/10/04 13:24:37;;;;;;;0.30;0.20;;;19.20;80.50;;;;;;5052324;28;20708;-61
2023/10/04 13:27:03;;;;;;;0.30;0.20;;;19.20;82.10;;;;;;5053212;28;20418;-61
2023/10/04 13:29:30;;;;;;;0.30;0.20;;;19.10;83.20;;;;;;5052835;28;20174;-61
2023/10/04 13:31:55;;;;;;;0.30;0.30;;;19.10;83.90;;;;;;5052649;28;20395;-62
2023/10/04 13:34:21;;;;;;;0.30;0.30;;;19.10;83.70;;;;;;5052714;28;20411;-62
2023/10/04 13:36:46;;;;;;;0.30;0.30;;;19.00;84.00;;;;;;5054610;28;20201;-62
2023/10/04 13:39:12;;;;;;;0.40;0.40;;;19.00;85.20;;;;;;5057060;28;20177;-62
2023/10/04 13:41:38;;;;;;;0.60;0.37;;;19.00;85.80;;;;;;5056644;28;20170;-62
2023/10/04 13:44:04;;;;;;;0.30;0.20;;;19.00;86.40;;;;;;5055833;28;20809;-61
2023/10/04 13:46:30;;;;;;;0.30;0.30;;;19.00;85.00;;;;;;5056757;28;20570;-61
2023/10/04 13:48:56;;;;;;;0.30;0.20;;;19.20;85.00;;;;;;5056831;28;20416;-62
2023/10/04 13:51:25;;;;;;;0.40;0.30;;;19.20;85.40;;;;;;5056812;28;20508;-62
2023/10/04 13:53:50;;;;;;;0.30;0.30;;;19.30;86.70;;;;;;5056249;28;20239;-62
2023/10/04 13:56:16;;;;;;;0.30;0.30;;;19.30;85.70;;;;;;5056045;28;20832;-62
2023/10/04 13:58:42;;;;;;;0.30;0.30;;;19.30;86.50;;;;;;5056351;28;20174;-61
2023/10/04 14:01:08;;;;;;;0.30;0.20;;;19.40;86.10;;;;;;5056473;28;20408;-62
2023/10/04 14:03:35;;;;;;;0.30;0.30;;;19.30;84.50;;;;;;5056644;28;20527;-62
2023/10/04 14:06:10;;;;;;;0.30;0.20;;;19.30;85.20;;;;;;5055902;28;20876;-61
2023/10/04 14:08:36;;;;;;;0.30;0.30;;;19.30;85.60;;;;;;5056354;28;20469;-62
2023/10/04 14:11:03;;;;;;;0.43;0.43;;;19.30;86.00;;;;;;5056031;28;20800;-62
2023/10/04 14:13:29;;;;;;;0.30;0.30;;;19.30;85.20;;;;;;5055871;28;20264;-61
2023/10/04 14:15:55;;;;;;;0.30;0.20;;;19.40;85.10;;;;;;5055670;28;20529;-61
2023/10/04 14:18:25;;;;;;;0.30;0.30;;;19.40;85.60;;;;;;5056139;28;20280;-62
2023/10/04 14:20:55;;;;;;;0.30;0.30;;;19.30;84.70;;;;;;5056261;28;20386;-62
2023/10/04 14:23:21;;;;;;;0.30;0.30;;;19.30;85.50;;;;;;5056161;28;20865;-62
2023/10/04 14:25:49;;;;;;;0.30;0.30;;;19.30;85.70;;;;;;5055179;28;20439;-62
2023/10/04 14:28:17;;;;;;;0.30;0.30;;;19.30;86.20;;;;;;5056113;28;20288;-62
2023/10/04 14:30:43;;;;;;;1.07;1.07;;;19.20;85.80;;;;;;5055900;28;20427;-61
2023/10/04 14:33:08;;;;;;;0.30;0.30;;;19.00;87.00;;;;;;5056327;28;20890;-62
2023/10/04 14:35:34;;;;;;;0.30;0.30;;;18.90;86.50;;;;;;5055372;28;20194;-62
2023/10/04 14:38:00;;;;;;;0.30;0.30;;;18.80;86.90;;;;;;5055923;28;20249;-62
2023/10/04 14:40:26;;;;;;;0.30;0.30;;;18.80;86.60;;;;;;5055041;28;20185;-62
2023/10/04 14:42:54;;;;;;;0.30;0.30;;;18.70;86.30;;;;;;5037733;28;20428;-63
2023/10/04 14:45:20;;;;;;;0.30;0.20;;;18.60;86.80;;;;;;5055336;28;20255;-63
2023/10/04 14:47:46;;;;;;;0.30;0.20;;;18.60;86.80;;;;;;5054902;28;20470;-62
2023/10/04 14:50:15;;;;;;;0.30;0.30;;;18.60;86.60;;;;;;5055664;28;20491;-62
2023/10/04 14:52:43;;;;;;;0.30;0.20;;;18.60;87.20;;;;;;5055549;28;20400;-61
2023/10/04 14:55:19;;;;;;;0.30;0.20;;;18.60;86.40;;;;;;5054394;28;20418;-61
2023/10/04 14:57:46;;;;;;;0.30;0.30;;;18.70;87.00;;;;;;5055510;28;20423;-61
2023/10/04 15:00:16;;;;;;;0.30;0.30;;;18.80;86.90;;;;;;5054892;28;20404;-61
2023/10/04 15:02:44;;;;;;;0.30;0.30;;;18.80;87.00;;;;;;5055097;28;20503;-60
2023/10/04 15:05:10;;;;;;;0.30;0.30;;;18.90;87.40;;;;;;5054671;28;20505;-61
2023/10/04 15:07:37;;;;;;;0.30;0.30;;;18.90;87.40;;;;;;5054963;28;20474;-62
2023/10/04 15:10:04;;;;;;;0.30;0.30;;;18.90;86.00;;;;;;5054882;28;20434;-61
2023/10/04 15:12:31;;;;;;;0.30;0.30;;;18.90;86.40;;;;;;5055034;28;20398;-61
2023/10/04 15:14:56;;;;;;;0.30;0.20;;;19.00;87.20;;;;;;5054603;28;20406;-61
2023/10/04 15:17:22;;;;;;;0.30;0.30;;;19.00;87.60;;;;;;5055157;28;20412;-61
2023/10/04 15:19:48;;;;;;;0.30;0.30;;;19.00;87.30;;;;;;5054817;28;20177;-60
2023/10/04 15:22:14;;;;;;;0.30;0.30;;;19.00;86.70;;;;;;5054981;28;20197;-61
2023/10/04 15:24:41;;;;;;;0.50;0.50;;;18.90;86.80;;;;;;5054127;28;20507;-61
2023/10/04 15:27:07;;;;;;;0.40;0.40;;;18.80;87.40;;;;;;5054876;28;20496;-61
2023/10/04 15:29:34;;;;;;;0.30;0.30;;;18.80;87.10;;;;;;5054602;28;20470;-60
2023/10/04 15:32:01;;;;;;;0.30;0.30;;;18.70;88.10;;;;;;5054295;28;20518;-61
2023/10/04 15:34:26;;;;;;;0.30;0.27;;;18.60;88.00;;;;;;5054239;28;20408;-61
2023/10/04 15:36:52;;;;;;;0.30;0.20;;;18.50;87.10;;;;;;5054261;28;20434;-61
2023/10/04 15:39:20;;;;;;;0.30;0.30;;;18.40;87.40;;;;;;5054588;28;20172;-61
2023/10/04 15:41:46;;;;;;;0.30;0.20;;;18.20;87.80;;;;;;5034490;28;20215;-62
2023/10/04 15:44:12;;;;;;;0.33;0.33;;;18.20;88.30;;;;;;5033231;28;21063;-60
2023/10/04 15:46:38;;;;;;;0.30;0.30;;;18.00;89.70;;;;;;5034256;28;20198;-61
2023/10/04 15:49:05;;;;;;;2.30;0.70;;;17.90;90.10;;;;;;5034038;28;20180;-61
2023/10/04 15:51:31;;;;;;;0.30;0.30;;;17.80;90.20;;;;;;5048750;28;20435;-61
2023/10/04 15:53:57;;;;;;;0.30;0.30;;;17.80;90.40;;;;;;5054231;28;20386;-61
2023/10/04 15:56:22;;;;;;;0.30;0.30;;;17.70;90.80;;;;;;5054022;28;20473;-60
2023/10/04 15:58:48;;;;;;;0.30;0.30;;;17.60;91.00;;;;;;5054146;28;20180;-61
2023/10/04 16:01:13;;;;;;;0.30;0.30;;;17.50;91.30;;;;;;5053393;28;20269;-62
2023/10/04 16:03:39;;;;;;;0.30;0.30;;;17.50;91.60;;;;;;5053812;28;20657;-62
2023/10/04 16:06:05;;;;;;;0.30;0.20;;;17.50;91.70;;;;;;5053494;28;20218;-61
2023/10/04 16:08:31;;;;;;;0.30;0.30;;;17.40;91.90;;;;;;5054028;28;20175;-62
2023/10/04 16:10:58;;;;;;;0.30;0.30;;;17.30;92.30;;;;;;5054449;28;20402;-62
2023/10/04 16:13:24;;;;;;;0.30;0.30;;;17.30;92.50;;;;;;5054002;28;20169;-61
2023/10/04 16:15:50;;;;;;;0.30;0.20;;;17.20;92.70;;;;;;5053468;28;20437;-64
2023/10/04 16:18:15;;;;;;;0.30;0.20;;;17.20;92.90;;;;;;5035868;28;20930;-64
2023/10/04 16:20:44;;;;;;;0.30;0.30;;;17.10;93.10;;;;;;5053622;28;20593;-63
2023/10/04 16:23:10;;;;;;;0.30;0.30;;;17.10;93.30;;;;;;5053450;28;20175;-63
2023/10/04 16:25:39;;;;;;;0.30;0.30;;;17.00;93.50;;;;;;5053059;28;20774;-63
2023/10/04 16:28:08;;;;;;;0.30;0.20;;;16.90;93.80;;;;;;5053714;28;20196;-64
2023/10/04 16:30:34;;;;;;;0.30;0.30;;;16.90;93.90;;;;;;5053736;28;20460;-63
2023/10/04 16:33:00;;;;;;;0.57;0.57;;;16.80;94.20;;;;;;5053526;28;20385;-63
2023/10/04 16:35:26;;;;;;;0.60;0.60;;;16.80;94.00;;;;;;5052938;28;20193;-65
2023/10/04 16:37:51;;;;;;;0.30;0.30;;;16.70;94.20;;;;;;5053425;28;20175;-63
2023/10/04 16:40:19;;;;;;;0.30;0.30;;;16.60;94.70;;;;;;5053588;28;20400;-64
2023/10/04 16:42:45;;;;;;;0.30;0.20;;;16.50;95.00;;;;;;5053236;28;20636;-62
2023/10/04 16:45:15;;;;;;;0.30;0.30;;;16.40;95.30;;;;;;5052706;28;20408;-62
2023/10/04 16:47:45;;;;;;;0.30;0.30;;;16.30;95.70;;;;;;5053262;28;20517;-61
2023/10/04 16:50:16;;;;;;;0.30;0.30;;;16.30;95.60;;;;;;5053212;28;20416;-62
2023/10/04 16:52:42;;;;;;;0.30;0.30;;;16.20;95.70;;;;;;5053173;28;20428;-62
2023/10/04 16:55:09;;;;;;;0.40;0.40;;;16.10;95.80;;;;;;5052644;28;20429;-62
2023/10/04 16:57:35;;;;;;;0.30;0.30;;;16.00;96.10;;;;;;5052992;28;20568;-61
2023/10/04 17:00:01;;;;;;;0.30;0.30;;;15.90;96.40;;;;;;5034752;28;20499;-61
2023/10/04 17:02:27;;;;;;;0.30;0.30;;;15.80;96.40;;;;;;5052961;28;20405;-62
2023/10/04 17:04:53;;;;;;;0.30;0.30;;;15.80;96.40;;;;;;5051918;28;20505;-62
2023/10/04 17:07:18;;;;;;;0.30;0.30;;;15.70;97.00;;;;;;5050671;28;20200;-62
2023/10/04 17:09:44;;;;;;;0.30;0.30;;;15.60;97.20;;;;;;5051204;28;20639;-61